Time;durP1;ratioP1;P1;durP2;ratioP2;P2;SDS_P1;SDS_P2;PMS_P1;PMS_P2;Temp;Humidity;BMP_temperature;BMP_pressure;BME280_temperature;BME280_humidity;BME280_pressure;Samples;Min_cycle;Max_cycle;Signal;HPM_P1;HPM_P2
2022/02/03 00:00:50;;;;;;;12.3;9;;;;;;;3.88;95.2207;944.0098;;;;
2022/02/03 00:03:21;;;;;;;13.7;9.3;;;;;;;3.85;95.07715;944.022;;;;
2022/02/03 00:05:49;;;;;;;12;8.6;;;;;;;3.86;95.31543;944.0048;;;;
2022/02/03 00:08:14;;;;;;;12.1;9;;;;;;;3.91;94.97949;944.0064;;;;
2022/02/03 00:16:59;;;;;;;12.8;8.9;;;;;;;3.94;94.7832;944.0826;;;;
2022/02/03 00:24:21;;;;;;;12.9;8.9;;;;;;;4.05;93.94141;944.1008;;;;
2022/02/03 00:26:30;;;;;;;11.9;8.9;;;;;;;4.06;93.96582;944.0642;;;;
2022/02/03 00:29:16;;;;;;;10.7;8.2;;;;;;;4.1;93.72559;944.1487;;;;
2022/02/03 00:32:04;;;;;;;9.9;8;;;;;;;4.24;92.95898;944.0984;;;;
2022/02/03 00:34:35;;;;;;;12.9;7.8;;;;;;;4.05;93.23438;944.0964;;;;
2022/02/03 00:37:27;;;;;;;8.3;6.1;;;;;;;3.76;94.99023;944.1199;;;;
2022/02/03 00:50:01;;;;;;;9.8;6.4;;;;;;;3.9;94.61719;944.0872;;;;
2022/02/03 00:52:18;;;;;;;8.4;6.1;;;;;;;3.95;94.42676;944.1792;;;;
2022/02/03 00:54:49;;;;;;;7.4;5.3;;;;;;;4.1;93.80664;944.1607;;;;
2022/02/03 00:57:19;;;;;;;7;4.8;;;;;;;4.12;93.58594;944.1442;;;;
2022/02/03 00:59:45;;;;;;;5.2;4.3;;;;;;;4.07;93.41797;944.1429;;;;
2022/02/03 01:02:10;;;;;;;5.2;3.8;;;;;;;4.18;93.35254;944.1002;;;;
2022/02/03 01:04:39;;;;;;;5.6;4.5;;;;;;;4.24;93.01563;944.1041;;;;
2022/02/03 01:07:07;;;;;;;7.9;4.5;;;;;;;4.2;93.11816;944.0267;;;;
2022/02/03 01:09:35;;;;;;;7.4;4.6;;;;;;;4.21;92.98438;944.0826;;;;
2022/02/03 01:12:06;;;;;;;7.6;5.3;;;;;;;4.27;92.75293;944.1487;;;;
2022/02/03 01:14:28;;;;;;;4.6;4;;;;;;;4.42;91.77148;944.0658;;;;
2022/02/03 01:17:12;;;;;;;4.7;3.8;;;;;;;4.35;92.13867;944.0524;;;;
2022/02/03 01:19:34;;;;;;;5;4;;;;;;;4.35;92.47656;944.0776;;;;
2022/02/03 01:34:24;;;;;;;7.2;4.8;;;;;;;3.7;95.70801;944.2466;;;;
2022/02/03 01:43:46;;;;;;;7.2;4.7;;;;;;;4;94.80664;944.1873;;;;
2022/02/03 01:46:12;;;;;;;6.8;4.9;;;;;;;4.05;94.29004;944.2058;;;;
2022/02/03 01:48:41;;;;;;;8.6;4.8;;;;;;;4.07;93.8125;944.2012;;;;
2022/02/03 01:53:28;;;;;;;6.9;4.7;;;;;;;4.15;92.94824;944.1855;;;;
2022/02/03 01:55:54;;;;;;;5.4;4.4;;;;;;;4.18;92.69727;944.1813;;;;
2022/02/03 01:58:20;;;;;;;6.3;4.2;;;;;;;4.17;92.45996;944.2375;;;;
2022/02/03 02:00:45;;;;;;;6.2;4.5;;;;;;;4.33;91.63965;944.2283;;;;
2022/02/03 02:03:10;;;;;;;4.9;3.9;;;;;;;3.81;93.93457;944.2542;;;;
2022/02/03 02:05:39;;;;;;;4.7;3.8;;;;;;;3.84;94.54688;944.2255;;;;
2022/02/03 02:08:04;;;;;;;4.8;3.5;;;;;;;3.93;94.25;944.1016;;;;
2022/02/03 02:10:48;;;;;;;5.3;3.2;;;;;;;4;93.72852;944.1733;;;;
2022/02/03 02:13:04;;;;;;;5.4;3.7;;;;;;;4.05;93.44629;944.1103;;;;
2022/02/03 02:15:49;;;;;;;4.7;3.4;;;;;;;4.02;93.47363;944.1046;;;;
2022/02/03 02:38:08;;;;;;;5.2;4.2;;;;;;;4.13;93.26172;943.9048;;;;
2022/02/03 02:41:44;;;;;;;4.7;4;;;;;;;4.31;92.17578;943.9249;;;;
2022/02/03 02:42:47;;;;;;;8.2;5.7;;;;;;;4.09;92.47754;943.8901;;;;
2022/02/03 02:45:12;;;;;;;7.8;5.2;;;;;;;4.03;92.86914;943.9244;;;;
2022/02/03 02:47:41;;;;;;;6.9;4.6;;;;;;;3.97;93.28223;943.8632;;;;
2022/02/03 02:50:06;;;;;;;5.6;4.5;;;;;;;4.07;92.91211;943.8814;;;;
2022/02/03 02:52:40;;;;;;;6.9;4.4;;;;;;;3.94;93.26465;943.818;;;;
2022/02/03 02:55:09;;;;;;;7.8;5.6;;;;;;;4.05;93.04102;943.8014;;;;
2022/02/03 03:00:21;;;;;;;5.4;4;;;;;;;3.85;93.97559;943.9187;;;;
2022/02/03 03:02:55;;;;;;;3.8;2.9;;;;;;;3.87;93.92188;943.8438;;;;
2022/02/03 03:29:23;;;;;;;3.7;2.3;;;;;;;3.67;94.31836;943.6744;;;;
2022/02/03 03:32:09;;;;;;;3.8;2.4;;;;;;;3.38;95.41016;943.6263;;;;
2022/02/03 03:34:17;;;;;;;2.5;2.3;;;;;;;3.53;95.60059;943.6152;;;;
2022/02/03 03:36:37;;;;;;;4.9;3.4;;;;;;;3.68;94.76953;943.611;;;;
2022/02/03 03:38:59;;;;;;;4.8;3.5;;;;;;;3.78;94.25195;943.6824;;;;
2022/02/03 03:41:27;;;;;;;4.2;3.2;;;;;;;3.85;93.58203;943.6484;;;;
2022/02/03 03:43:52;;;;;;;3.8;2.7;;;;;;;3.88;93.02832;943.6468;;;;
2022/02/03 03:46:17;;;;;;;2.7;2.5;;;;;;;3.85;93.18945;943.6722;;;;
2022/02/03 03:48:47;;;;;;;3.1;2.5;;;;;;;3.82;93.14941;943.6395;;;;
2022/02/03 03:51:12;;;;;;;3.1;2.7;;;;;;;3.84;93.1875;943.6756;;;;
2022/02/03 03:53:46;;;;;;;3.4;3.1;;;;;;;3.9;93.01953;943.701;;;;
2022/02/03 03:56:08;;;;;;;2.9;2.1;;;;;;;3.64;93.37988;943.588;;;;
2022/02/03 04:00:33;;;;;;;2.5;2;;;;;;;3.39;94.83984;943.5778;;;;
2022/02/03 04:29:05;;;;;;;3.1;2.6;;;;;;;3.37;95.34082;943.5251;;;;
2022/02/03 04:30:03;;;;;;;3.5;2.7;;;;;;;3.35;95.82031;943.5566;;;;
2022/02/03 04:32:32;;;;;;;3.8;2.3;;;;;;;3.29;96.0166;943.452;;;;
2022/02/03 04:37:26;;;;;;;3.5;2.8;;;;;;;3.11;97.11133;943.4455;;;;
2022/02/03 04:39:47;;;;;;;3.3;2.5;;;;;;;3.17;97.00293;943.4102;;;;
2022/02/03 04:43:03;;;;;;;2.7;2.5;;;;;;;3.33;95.99316;943.3845;;;;
2022/02/03 04:44:59;;;;;;;2.9;2.3;;;;;;;3;97.2998;943.407;;;;
2022/02/03 04:54:24;;;;;;;4.1;2.8;;;;;;;2.94;98.1377;943.2667;;;;
2022/02/03 04:56:37;;;;;;;4;3;;;;;;;3.12;97.5293;943.198;;;;
2022/02/03 05:01:38;;;;;;;4.5;3.3;;;;;;;3.13;97.39844;943.2355;;;;
2022/02/03 05:05:38;;;;;;;2.8;2.5;;;;;;;3.09;97.42188;943.2634;;;;
2022/02/03 05:08:05;;;;;;;3.4;2.6;;;;;;;3.29;96.50195;943.2184;;;;
2022/02/03 05:10:40;;;;;;;2.5;2.3;;;;;;;3.3;96.40234;943.2242;;;;
2022/02/03 05:13:01;;;;;;;2.5;2.3;;;;;;;3.45;95.53711;943.1785;;;;
2022/02/03 05:15:53;;;;;;;3.1;2.4;;;;;;;3.27;96.20605;943.1422;;;;
2022/02/03 05:18:27;;;;;;;3.1;2.3;;;;;;;3.15;96.46875;943.2095;;;;
2022/02/03 05:20:41;;;;;;;5;2.9;;;;;;;3.14;96.81641;943.1863;;;;
2022/02/03 05:33:19;;;;;;;2.7;2.5;;;;;;;3.4;95.0332;942.9738;;;;
2022/02/03 05:44:02;;;;;;;10.6;6.2;;;;;;;3.46;95.08984;943.1127;;;;
2022/02/03 05:45:55;;;;;;;8.8;6.3;;;;;;;3.44;94.7627;943.0286;;;;
2022/02/03 05:48:16;;;;;;;7.3;5.1;;;;;;;3.5;94.66211;943.0722;;;;
2022/02/03 05:50:31;;;;;;;8.8;5.5;;;;;;;3.58;94.29785;942.934;;;;
2022/02/03 05:54:31;;;;;;;8;5.8;;;;;;;3.63;93.8252;942.9858;;;;
2022/02/03 06:05:02;;;;;;;4.1;3.4;;;;;;;3.39;93.91895;942.9119;;;;
2022/02/03 06:07:40;;;;;;;3.3;3;;;;;;;3.24;95.21191;942.8771;;;;
2022/02/03 06:11:56;;;;;;;3.7;2.8;;;;;;;3.11;95.94434;942.8303;;;;
2022/02/03 06:12:46;;;;;;;3.5;3;;;;;;;3.15;96.21094;942.834;;;;
2022/02/03 06:14:54;;;;;;;4.8;3.4;;;;;;;3.07;96.58496;942.7567;;;;
2022/02/03 06:17:30;;;;;;;5.6;3.7;;;;;;;2.97;96.83203;942.822;;;;
2022/02/03 06:20:56;;;;;;;9.3;5.7;;;;;;;2.8;97.99512;942.8164;;;;
2022/02/03 06:24:02;;;;;;;9.2;5.1;;;;;;;2.81;98.60254;942.741;;;;
2022/02/03 06:27:33;;;;;;;5.1;3.9;;;;;;;2.92;98.12012;942.6669;;;;
2022/02/03 06:30:37;;;;;;;4.9;3;;;;;;;2.96;98.74805;942.6908;;;;
2022/02/03 06:33:04;;;;;;;6.2;4.8;;;;;;;3.3;96.54883;942.7453;;;;
2022/02/03 06:35:29;;;;;;;7;5.5;;;;;;;3.3;96.21191;942.6718;;;;
2022/02/03 06:37:57;;;;;;;6.6;5.2;;;;;;;3.09;97.00488;942.5372;;;;
2022/02/03 06:40:22;;;;;;;5.9;4.5;;;;;;;2.92;98.28906;942.5773;;;;
2022/02/03 06:42:54;;;;;;;7;5.2;;;;;;;3.17;97.38184;942.6194;;;;
2022/02/03 06:45:17;;;;;;;9.7;6.7;;;;;;;3.22;96.69824;942.5331;;;;
2022/02/03 06:47:49;;;;;;;11.5;6.9;;;;;;;2.92;97.49219;942.5042;;;;
2022/02/03 06:50:12;;;;;;;11.9;7.1;;;;;;;2.89;98.44141;942.4771;;;;
2022/02/03 06:52:39;;;;;;;11.4;6.8;;;;;;;3.05;99.1416;942.421;;;;
2022/02/03 06:55:05;;;;;;;7;4.2;;;;;;;3.01;98.46875;942.5552;;;;
2022/02/03 06:57:27;;;;;;;5;3.5;;;;;;;3.11;97.84082;942.65;;;;
2022/02/03 06:59:53;;;;;;;3.7;2.9;;;;;;;3.2;97.53613;942.6476;;;;
2022/02/03 07:02:10;;;;;;;10.2;6.4;;;;;;;3.02;97.87598;942.6446;;;;
2022/02/03 07:04:44;;;;;;;197.2;119.2;;;;;;;3.08;98.21387;942.5848;;;;
2022/02/03 07:07:03;;;;;;;89.4;55.4;;;;;;;3.42;97.44043;942.6355;;;;
2022/02/03 07:09:32;;;;;;;8.6;5.9;;;;;;;3.34;96.51367;942.6071;;;;
2022/02/03 07:11:57;;;;;;;210.3;130.5;;;;;;;3.19;96.88574;942.5632;;;;
2022/02/03 07:14:30;;;;;;;9.4;7.2;;;;;;;3.04;97.79297;942.4803;;;;
2022/02/03 07:16:54;;;;;;;10.2;9.3;;;;;;;2.91;98.07617;942.4567;;;;
2022/02/03 07:19:25;;;;;;;8.2;7.5;;;;;;;2.86;98.7832;942.402;;;;
2022/02/03 07:21:56;;;;;;;9.9;6.7;;;;;;;3.33;99.7998;942.4095;;;;
2022/02/03 07:24:27;;;;;;;6.6;4.5;;;;;;;3.99;98.57129;942.382;;;;
2022/02/03 07:26:52;;;;;;;10.5;5.8;;;;;;;4.33;95.20508;942.3211;;;;
2022/02/03 07:29:20;;;;;;;5.6;4;;;;;;;5.27;89.41504;942.2598;;;;
2022/02/03 07:31:45;;;;;;;6.3;4.3;;;;;;;5.17;87.74902;942.3066;;;;
2022/02/03 07:34:20;;;;;;;5.3;3.7;;;;;;;5.34;86.72461;942.2792;;;;
2022/02/03 07:36:49;;;;;;;6.9;5.1;;;;;;;6.05;84.54004;942.2137;;;;
2022/02/03 07:39:16;;;;;;;10.5;7.6;;;;;;;;;;;;;
2022/02/03 07:41:42;;;;;;;7.3;5.5;;;;;;;;;;;;;
2022/02/03 07:44:07;;;;;;;6.4;5;;;;;;;;;;;;;
2022/02/03 07:46:32;;;;;;;7.3;5.5;;;;;;;;;;;;;
2022/02/03 07:48:57;;;;;;;8;5.4;;;;;;;;;;;;;
2022/02/03 07:51:32;;;;;;;16.9;9.8;;;;;;;;;;;;;
2022/02/03 07:53:51;;;;;;;6.7;4.2;;;;;;;;;;;;;
2022/02/03 07:56:16;;;;;;;1.5;1.4;;;;;;;;;;;;;
2022/02/03 07:58:44;;;;;;;2;1.6;;;;;;;;;;;;;
2022/02/03 08:01:09;;;;;;;1.1;1;;;;;;;;;;;;;
2022/02/03 08:03:47;;;;;;;1;0.9;;;;;;;;;;;;;
2022/02/03 08:06:07;;;;;;;3.5;2.9;;;;;;;;;;;;;
2022/02/03 08:08:33;;;;;;;3;2.5;;;;;;;;;;;;;
2022/02/03 08:10:58;;;;;;;6.5;4.5;;;;;;;;;;;;;
2022/02/03 08:13:24;;;;;;;10.9;6.7;;;;;;;;;;;;;
2022/02/03 08:15:45;;;;;;;6.5;3.9;;;;;;;;;;;;;
2022/02/03 08:18:17;;;;;;;2.5;2;;;;;;;;;;;;;
2022/02/03 08:20:43;;;;;;;9.3;5.6;;;;;;;;;;;;;
2022/02/03 08:23:25;;;;;;;18.5;11.5;;;;;;;;;;;;;
2022/02/03 08:25:29;;;;;;;10.6;6.9;;;;;;;;;;;;;
2022/02/03 08:28:29;;;;;;;3.6;2.8;;;;;;;;;;;;;
2022/02/03 08:30:31;;;;;;;4.7;3.8;;;;;;;;;;;;;
2022/02/03 08:32:49;;;;;;;3.8;3;;;;;;;;;;;;;
2022/02/03 08:35:20;;;;;;;1.9;1.6;;;;;;;;;;;;;
2022/02/03 08:37:53;;;;;;;1.3;1.2;;;;;;;;;;;;;
2022/02/03 08:40:11;;;;;;;0.3;0.3;;;;;;;;;;;;;
2022/02/03 08:42:27;;;;;;;0.8;0.4;;;;;;;;;;;;;
2022/02/03 08:44:52;;;;;;;1.1;1;;;;;;;;;;;;;
2022/02/03 08:47:19;;;;;;;2.3;1.8;;;;;;;;;;;;;
2022/02/03 08:49:46;;;;;;;2;1.6;;;;;;;;;;;;;
2022/02/03 08:52:17;;;;;;;1.4;1.2;;;;;;;;;;;;;
2022/02/03 08:54:38;;;;;;;2.4;1.9;;;;;;;;;;;;;
2022/02/03 08:57:11;;;;;;;1.9;1.7;;;;;;;;;;;;;
2022/02/03 09:33:01;;;;;;;0.7;0.7;;;;;;;;;;;;;
2022/02/03 09:36:05;;;;;;;1;1;;;;;;;;;;;;;
2022/02/03 09:38:46;;;;;;;0.8;0.8;;;;;;;;;;;;;
2022/02/03 09:50:48;;;;;;;1.3;1.1;;;;;;;;;;;;;
2022/02/03 09:53:05;;;;;;;2.3;1.4;;;;;;;;;;;;;
2022/02/03 09:55:20;;;;;;;2;1.3;;;;;;;;;;;;;
2022/02/03 09:57:41;;;;;;;1.5;1.2;;;;;;;;;;;;;
2022/02/03 10:00:03;;;;;;;1;0.9;;;;;;;;;;;;;
2022/02/03 10:02:27;;;;;;;0.6;0.6;;;;;;;;;;;;;
2022/02/03 10:04:51;;;;;;;1.5;0.8;;;;;;;;;;;;;
2022/02/03 10:07:20;;;;;;;0.8;0.7;;;;;;;;;;;;;
2022/02/03 10:09:42;;;;;;;1;0.8;;;;;;;;;;;;;
2022/02/03 10:12:07;;;;;;;1.2;1;;;;;;;;;;;;;
2022/02/03 10:14:32;;;;;;;1;0.9;;;;;;;;;;;;;
2022/02/03 10:16:59;;;;;;;1.4;0.7;;;;;;;;;;;;;
2022/02/03 10:19:34;;;;;;;0.9;0.9;;;;;;;;;;;;;
2022/02/03 10:21:56;;;;;;;1;0.8;;;;;;;;;;;;;
2022/02/03 10:24:22;;;;;;;0.6;0.6;;;;;;;;;;;;;
2022/02/03 10:26:47;;;;;;;1;0.7;;;;;;;;;;;;;
2022/02/03 10:29:12;;;;;;;1.3;0.8;;;;;;;;;;;;;
2022/02/03 10:31:37;;;;;;;1;0.9;;;;;;;;;;;;;
2022/02/03 10:34:08;;;;;;;0.9;0.8;;;;;;;;;;;;;
2022/02/03 10:36:30;;;;;;;1.2;0.5;;;;;;;;;;;;;
2022/02/03 10:39:18;;;;;;;1.1;0.9;;;;;;;;;;;;;
2022/02/03 10:46:43;;;;;;;0.4;0.4;;;;;;;;;;;;;
2022/02/03 10:49:05;;;;;;;1.4;0.6;;;;;;;;;;;;;
2022/02/03 10:51:29;;;;;;;2.2;0.6;;;;;;;;;;;;;
2022/02/03 10:53:45;;;;;;;1.1;0.9;;;;;;;;;;;;;
2022/02/03 10:56:12;;;;;;;1.6;1;;;;;;;;;;;;;
2022/02/03 10:58:45;;;;;;;1.1;0.9;;;;;;;;;;;;;
2022/02/03 11:01:08;;;;;;;1.2;0.9;;;;;;;;;;;;;
2022/02/03 11:03:25;;;;;;;0.9;0.7;;;;;;;;;;;;;
2022/02/03 11:06:51;;;;;;;1.7;0.8;;;;;;;;;;;;;
2022/02/03 11:08:16;;;;;;;0.8;0.8;;;;;;;;;;;;;
2022/02/03 11:10:38;;;;;;;1.2;0.9;;;;;;;;;;;;;
2022/02/03 11:12:56;;;;;;;1.2;0.9;;;;;;;;;;;;;
2022/02/03 11:15:21;;;;;;;1;0.8;;;;;;;;;;;;;
2022/02/03 11:17:47;;;;;;;1.1;0.8;;;;;;;;;;;;;
2022/02/03 11:20:12;;;;;;;1.2;0.7;;;;;;;;;;;;;
2022/02/03 11:22:49;;;;;;;1.3;0.9;;;;;;;;;;;;;
2022/02/03 11:25:17;;;;;;;0.5;0.5;;;;;;;;;;;;;
2022/02/03 11:27:46;;;;;;;1.2;0.7;;;;;;;;;;;;;
2022/02/03 11:30:41;;;;;;;0.7;0.6;;;;;;;;;;;;;
2022/02/03 11:32:55;;;;;;;1.2;0.7;;;;;;;;;;;;;
2022/02/03 11:35:37;;;;;;;2.1;1.1;;;;;;;;;;;;;
2022/02/03 11:38:11;;;;;;;2.9;2;;;;;;;;;;;;;
2022/02/03 11:40:15;;;;;;;3.5;2.2;;;;;;;;;;;;;
2022/02/03 11:42:30;;;;;;;3.7;2.2;;;;;;;;;;;;;
2022/02/03 11:47:15;;;;;;;5.9;2.9;;;;;;;;;;;;;
2022/02/03 11:49:54;;;;;;;5.7;3.4;;;;;;;;;;;;;
2022/02/03 11:54:51;;;;;;;4.5;3.1;;;;;;;;;;;;;
2022/02/03 11:57:09;;;;;;;2.7;1.8;;;;;;;;;;;;;
2022/02/03 11:59:25;;;;;;;3.1;2.4;;;;;;;;;;;;;
2022/02/03 12:01:52;;;;;;;2.5;2.2;;;;;;;;;;;;;
2022/02/03 12:14:13;;;;;;;4.4;2.5;;;;;;;;;;;;;
2022/02/03 12:16:22;;;;;;;3.8;2.4;;;;;;;;;;;;;
2022/02/03 12:18:58;;;;;;;3.4;2.4;;;;;;;;;;;;;
2022/02/03 12:21:15;;;;;;;3.5;2.2;;;;;;;;;;;;;
2022/02/03 12:23:47;;;;;;;4.1;2.8;;;;;;;;;;;;;
2022/02/03 12:26:04;;;;;;;3.2;2.2;;;;;;;;;;;;;
2022/02/03 12:28:36;;;;;;;3.9;2.9;;;;;;;;;;;;;
2022/02/03 12:31:13;;;;;;;5.3;3.2;;;;;;;;;;;;;
2022/02/03 12:38:23;;;;;;;3.9;1.8;;;;;;;;;;;;;
2022/02/03 12:40:50;;;;;;;3.5;2.4;;;;;;;;;;;;;
2022/02/03 12:43:14;;;;;;;3.8;2.9;;;;;;;;;;;;;
2022/02/03 12:45:30;;;;;;;3.8;2.9;;;;;;;;;;;;;
2022/02/03 12:47:54;;;;;;;5.4;2.7;;;;;;;;;;;;;
2022/02/03 12:50:23;;;;;;;3;2;;;;;;;;;;;;;
2022/02/03 12:52:48;;;;;;;8.2;4.7;;;;;;;;;;;;;
2022/02/03 12:55:13;;;;;;;6;3.5;;;;;;;;;;;;;
2022/02/03 12:57:39;;;;;;;3.6;1.8;;;;;;;;;;;;;
2022/02/03 13:00:04;;;;;;;1.5;1.2;;;;;;;;;;;;;
2022/02/03 13:02:29;;;;;;;1.2;1;;;;;;;;;;;;;
2022/02/03 13:04:55;;;;;;;1;1;;;;;;;;;;;;;
2022/02/03 13:07:20;;;;;;;1.1;0.9;;;;;;;;;;;;;
2022/02/03 13:09:53;;;;;;;2;1.4;;;;;;;;;;;;;
2022/02/03 13:12:18;;;;;;;1.2;1;;;;;;;;;;;;;
2022/02/03 13:14:45;;;;;;;1.7;1.1;;;;;;;;;;;;;
2022/02/03 13:17:10;;;;;;;1.4;1.3;;;;;;;;;;;;;
2022/02/03 13:19:37;;;;;;;1.7;1.5;;;;;;;;;;;;;
2022/02/03 13:22:10;;;;;;;3.3;1.7;;;;;;;;;;;;;
2022/02/03 13:25:08;;;;;;;1.7;1.5;;;;;;;;;;;;;
2022/02/03 13:26:46;;;;;;;3;1.8;;;;;;;;;;;;;
2022/02/03 13:29:13;;;;;;;3.5;2.3;;;;;;;;;;;;;
2022/02/03 13:31:45;;;;;;;4.6;3.4;;;;;;;;;;;;;
2022/02/03 13:34:09;;;;;;;1.3;1.2;;;;;;;;;;;;;
2022/02/03 13:36:28;;;;;;;2.1;1.2;;;;;;;;;;;;;
2022/02/03 13:38:57;;;;;;;1.5;1.2;;;;;;;;;;;;;
2022/02/03 13:41:19;;;;;;;1.4;0.6;;;;;;;;;;;;;
2022/02/03 13:43:44;;;;;;;2;1.3;;;;;;;;;;;;;
2022/02/03 13:46:09;;;;;;;1.2;1.1;;;;;;;;;;;;;
2022/02/03 13:48:37;;;;;;;0.7;0.7;;;;;;;;;;;;;
2022/02/03 13:51:01;;;;;;;1.6;1.2;;;;;;;;;;;;;
2022/02/03 13:53:33;;;;;;;2.1;1.1;;;;;;;;;;;;;
2022/02/03 14:11:28;;;;;;;1.1;0.9;;;;;;;;;;;;;
2022/02/03 14:15:21;;;;;;;1.2;1;;;;;;;;;;;;;
2022/02/03 14:20:38;;;;;;;0.9;0.7;;;;;;;;;;;;;
2022/02/03 14:22:54;;;;;;;3;1.6;;;;;;;;;;;;;
2022/02/03 14:27:23;;;;;;;1.5;1.2;;;;;;;;;;;;;
2022/02/03 14:29:48;;;;;;;1.6;1;;;;;;;;;;;;;
2022/02/03 14:32:12;;;;;;;1.2;1;;;;;;;;;;;;;
2022/02/03 14:34:36;;;;;;;2.6;1.2;;;;;;;;;;;;;
2022/02/03 14:37:07;;;;;;;1.6;1.3;;;;;;;;;;;;;
2022/02/03 14:39:40;;;;;;;4.5;2.9;;;;;;;;;;;;;
2022/02/03 14:41:51;;;;;;;4.3;2.2;;;;;;;;;;;;;
2022/02/03 14:44:19;;;;;;;2.8;2.4;;;;;;;;;;;;;
2022/02/03 14:46:42;;;;;;;4.3;2.5;;;;;;;;;;;;;
2022/02/03 14:49:09;;;;;;;3.9;2.3;;;;;;;;;;;;;
2022/02/03 14:51:44;;;;;;;3.2;1.6;;;;;;;;;;;;;
2022/02/03 14:57:59;;;;;;;4.3;1.7;;;;;;;;;;;;;
2022/02/03 14:58:49;;;;;;;3.5;1.9;;;;;;;;;;;;;
2022/02/03 15:01:16;;;;;;;3.3;2;;;;;;;;;;;;;
2022/02/03 15:03:41;;;;;;;6.6;3.6;;;;;;;;;;;;;
2022/02/03 15:06:11;;;;;;;5.1;4;;;;;;;;;;;;;
2022/02/03 15:08:47;;;;;;;5.9;3.3;;;;;;;;;;;;;
2022/02/03 15:11:07;;;;;;;5.4;3.2;;;;;;;;;;;;;
2022/02/03 15:13:40;;;;;;;6.8;4.1;;;;;;;;;;;;;
2022/02/03 15:15:47;;;;;;;4.7;2.3;;;;;;;;;;;;;
2022/02/03 15:18:17;;;;;;;4.1;2.7;;;;;;;;;;;;;
2022/02/03 15:20:39;;;;;;;6.6;3.9;;;;;;;;;;;;;
2022/02/03 15:23:06;;;;;;;4;3;;;;;;;;;;;;;
2022/02/03 15:25:29;;;;;;;6.2;3.8;;;;;;;;;;;;;
2022/02/03 15:27:56;;;;;;;7.7;4.8;;;;;;;;;;;;;
2022/02/03 15:30:21;;;;;;;9.3;6.1;;;;;;;;;;;;;
2022/02/03 15:32:49;;;;;;;7.4;4.9;;;;;;;;;;;;;
2022/02/03 15:35:19;;;;;;;4;2.7;;;;;;;;;;;;;
2022/02/03 15:37:38;;;;;;;3.6;2.4;;;;;;;;;;;;;
2022/02/03 15:40:09;;;;;;;3.3;2.7;;;;;;;;;;;;;
2022/02/03 15:42:29;;;;;;;7.1;4.6;;;;;;;;;;;;;
2022/02/03 15:44:56;;;;;;;7.2;4.9;;;;;;;;;;;;;
2022/02/03 15:47:26;;;;;;;7.5;4.8;;;;;;;;;;;;;
2022/02/03 15:50:14;;;;;;;8.1;5.8;;;;;;;;;;;;;
2022/02/03 15:57:22;;;;;;;10;7.8;;;;;;;;;;;;;
2022/02/03 16:02:20;;;;;;;12.2;8.1;;;;;;;;;;;;;
2022/02/03 16:18:49;;;;;;;11.7;8.5;;;;;;;;;;;;;
2022/02/03 16:21:26;;;;;;;9.3;6.7;;;;;;;;;;;;;
2022/02/03 16:41:03;;;;;;;12.2;9;;;;;;;;;;;;;
2022/02/03 16:50:28;;;;;;;9.7;6.7;;;;;;;;;;;;;
2022/02/03 16:52:49;;;;;;;9.1;6.8;;;;;;;;;;;;;
2022/02/03 16:55:14;;;;;;;7.4;5.9;;;;;;;;;;;;;
2022/02/03 16:57:36;;;;;;;8;5.9;;;;;;;;;;;;;
2022/02/03 17:00:06;;;;;;;10.3;7.3;;;;;;;;;;;;;
2022/02/03 17:02:26;;;;;;;12.6;8.6;;;;;;;;;;;;;
2022/02/03 17:04:56;;;;;;;16.7;12.7;;;;;;;;;;;;;
2022/02/03 17:07:19;;;;;;;10.1;7.1;;;;;;;;;;;;;
2022/02/03 17:09:44;;;;;;;8.7;5.8;;;;;;;;;;;;;
2022/02/03 17:12:10;;;;;;;7.7;5.7;;;;;;;;;;;;;
2022/02/03 17:14:37;;;;;;;8.6;6.1;;;;;;;;;;;;;
2022/02/03 17:17:02;;;;;;;14.7;10;;;;;;;;;;;;;
2022/02/03 17:19:28;;;;;;;27.4;18.3;;;;;;;;;;;;;
2022/02/03 17:21:53;;;;;;;33.1;20.2;;;;;;;;;;;;;
2022/02/03 17:24:18;;;;;;;54;29.7;;;;;;;;;;;;;
2022/02/03 17:26:53;;;;;;;30.7;19.6;;;;;;;;;;;;;
2022/02/03 17:29:14;;;;;;;34.8;22.5;;;;;;;;;;;;;
2022/02/03 17:31:49;;;;;;;37.7;24.7;;;;;;;;;;;;;
2022/02/03 17:54:16;;;;;;;22.7;16.7;;;;;;;;;;;;;
2022/02/03 18:03:35;;;;;;;17.3;13.6;;;;;;;;;;;;;
2022/02/03 18:06:34;;;;;;;21.1;14.2;;;;;;;;;;;;;
2022/02/03 18:08:34;;;;;;;19.2;14.8;;;;;;;;;;;;;
2022/02/03 18:10:30;;;;;;;26;19.4;;;;;;;;;;;;;
2022/02/03 18:18:00;;;;;;;25.2;19.3;;;;;;;;;;;;;
2022/02/03 18:28:32;;;;;;;25.7;18.6;;;;;;;;;;;;;
2022/02/03 18:30:03;;;;;;;31;21;;;;;;;;;;;;;
2022/02/03 18:35:06;;;;;;;26.8;19.3;;;;;;;;;;;;;
2022/02/03 18:37:13;;;;;;;19.5;15;;;;;;;;;;;;;
2022/02/03 18:48:23;;;;;;;32;22.8;;;;;;;;;;;;;
2022/02/03 18:51:34;;;;;;;20.6;15.3;;;;;;;;;;;;;
2022/02/03 18:54:03;;;;;;;15.5;11.3;;;;;;;;;;;;;
2022/02/03 18:56:29;;;;;;;15.9;11.3;;;;;;;;;;;;;
2022/02/03 18:58:49;;;;;;;13.5;9.3;;;;;;;;;;;;;
2022/02/03 19:21:14;;;;;;;30.8;20.6;;;;;;;;;;;;;
2022/02/03 19:23:33;;;;;;;30.5;23.6;;;;;;;;;;;;;
2022/02/03 19:28:12;;;;;;;28.4;19.5;;;;;;;;;;;;;
2022/02/03 20:00:55;;;;;;;30.2;23.8;;;;;;;;;;;;;
2022/02/03 20:02:04;;;;;;;24.4;16.2;;;;;;;;;;;;;
2022/02/03 20:04:26;;;;;;;21.9;15.1;;;;;;;;;;;;;
2022/02/03 20:06:49;;;;;;;21.4;14.4;;;;;;;;;;;;;
2022/02/03 20:09:12;;;;;;;16;12.3;;;;;;;;;;;;;
2022/02/03 20:11:30;;;;;;;18.3;13.1;;;;;;;;;;;;;
2022/02/03 20:13:55;;;;;;;25.2;17.2;;;;;;;;;;;;;
2022/02/03 20:16:22;;;;;;;48.3;29;;;;;;;;;;;;;
2022/02/03 20:18:49;;;;;;;33.7;22.2;;;;;;;;;;;;;
2022/02/03 20:21:14;;;;;;;35.8;22.2;;;;;;;;;;;;;
2022/02/03 20:23:42;;;;;;;25.3;16.7;;;;;;;;;;;;;
2022/02/03 20:26:04;;;;;;;30.7;22.4;;;;;;;;;;;;;
2022/02/03 20:28:30;;;;;;;37.1;27.1;;;;;;;;;;;;;
2022/02/03 20:30:55;;;;;;;26.2;18;;;;;;;;;;;;;
2022/02/03 20:33:22;;;;;;;34.1;23.4;;;;;;;;;;;;;
2022/02/03 20:35:47;;;;;;;38.8;26.6;;;;;;;;;;;;;
2022/02/03 20:38:14;;;;;;;36.7;26.6;;;;;;;;;;;;;
2022/02/03 20:40:37;;;;;;;33.4;22.5;;;;;;;;;;;;;
2022/02/03 20:43:03;;;;;;;37.4;26.5;;;;;;;;;;;;;
2022/02/03 20:45:28;;;;;;;29.8;21.6;;;;;;;;;;;;;
2022/02/03 20:47:53;;;;;;;29.5;21.3;;;;;;;;;;;;;
2022/02/03 20:50:20;;;;;;;29.3;22.1;;;;;;;;;;;;;
2022/02/03 20:52:45;;;;;;;24.7;18.4;;;;;;;;;;;;;
2022/02/03 20:55:10;;;;;;;35.7;31.8;;;;;;;;;;;;;
2022/02/03 20:57:36;;;;;;;29.7;23.4;;;;;;;;;;;;;
2022/02/03 21:00:14;;;;;;;25.2;19.2;;;;;;;;;;;;;
2022/02/03 21:02:36;;;;;;;29.4;18.8;;;;;;;;;;;;;
2022/02/03 21:05:00;;;;;;;20;14;;;;;;;;;;;;;
2022/02/03 21:07:16;;;;;;;35;31.6;;;;;;;;;;;;;
2022/02/03 21:09:47;;;;;;;16.8;12.7;;;;;;;;;;;;;
2022/02/03 21:12:07;;;;;;;16.6;12.5;;;;;;;;;;;;;
2022/02/03 21:14:33;;;;;;;16;10.9;;;;;;;;;;;;;
2022/02/03 21:16:58;;;;;;;17.8;12.4;;;;;;;;;;;;;
2022/02/03 21:19:25;;;;;;;17.3;12.4;;;;;;;;;;;;;
2022/02/03 21:21:50;;;;;;;21;14;;;;;;;;;;;;;
2022/02/03 21:24:16;;;;;;;22.1;14.5;;;;;;;;;;;;;
2022/02/03 21:26:41;;;;;;;20.9;15.2;;;;;;;;;;;;;
2022/02/03 21:29:07;;;;;;;24.6;16.2;;;;;;;;;;;;;
2022/02/03 21:31:32;;;;;;;21.7;14.1;;;;;;;;;;;;;
2022/02/03 21:33:58;;;;;;;18.3;12.5;;;;;;;;;;;;;
2022/02/03 21:36:25;;;;;;;16.2;10.7;;;;;;;;;;;;;
2022/02/03 21:38:51;;;;;;;14.9;11.4;;;;;;;;;;;;;
2022/02/03 21:41:17;;;;;;;16.2;11.5;;;;;;;;;;;;;
2022/02/03 21:43:43;;;;;;;17.7;12.3;;;;;;;;;;;;;
2022/02/03 21:46:09;;;;;;;14.4;10.9;;;;;;;;;;;;;
2022/02/03 21:48:34;;;;;;;20.1;14.4;;;;;;;;;;;;;
2022/02/03 21:51:02;;;;;;;21.2;15.2;;;;;;;;;;;;;
2022/02/03 21:53:29;;;;;;;23.8;15.8;;;;;;;;;;;;;
2022/02/03 21:55:51;;;;;;;20.2;13.2;;;;;;;;;;;;;
2022/02/03 21:58:15;;;;;;;18.5;13;;;;;;;;;;;;;
2022/02/03 22:00:41;;;;;;;21.6;15;;;;;;;;;;;;;
2022/02/03 22:03:08;;;;;;;27.9;19.9;;;;;;;;;;;;;
2022/02/03 22:05:35;;;;;;;25.8;16.7;;;;;;;;;;;;;
2022/02/03 22:07:58;;;;;;;27.6;17.5;;;;;;;;;;;;;
2022/02/03 22:10:24;;;;;;;43.9;33.2;;;;;;;;;;;;;
2022/02/03 22:12:49;;;;;;;148.4;103.5;;;;;;;;;;;;;
2022/02/03 22:15:18;;;;;;;89.7;67.6;;;;;;;;;;;;;
2022/02/03 22:17:46;;;;;;;14.1;9.2;;;;;;;;;;;;;
2022/02/03 22:20:18;;;;;;;13.5;9.1;;;;;;;;;;;;;
2022/02/03 22:22:46;;;;;;;12.2;8.3;;;;;;;;;;;;;
2022/02/03 22:25:17;;;;;;;16.9;9;;;;;;;;;;;;;
2022/02/03 22:27:43;;;;;;;21.5;11.2;;;;;;;;;;;;;
2022/02/03 22:40:27;;;;;;;12.7;8.5;;;;;;;;;;;;;
2022/02/03 22:42:31;;;;;;;84.7;56.2;;;;;;;;;;;;;
2022/02/03 22:44:30;;;;;;;27.2;18.5;;;;;;;;;;;;;
2022/02/03 22:47:17;;;;;;;14;9.4;;;;;;;;;;;;;
2022/02/03 22:49:15;;;;;;;14.5;10.7;;;;;;;;;;;;;
2022/02/03 22:51:41;;;;;;;12.1;8.1;;;;;;;;;;;;;
2022/02/03 22:54:07;;;;;;;11.6;7.8;;;;;;;;;;;;;
2022/02/03 22:56:32;;;;;;;12.8;8.8;;;;;;;;;;;;;
2022/02/03 22:59:57;;;;;;;14.3;9.9;;;;;;;;;;;;;
2022/02/03 23:01:23;;;;;;;14.3;10.2;;;;;;;;;;;;;
2022/02/03 23:03:48;;;;;;;14.2;9.6;;;;;;;;;;;;;
2022/02/03 23:06:13;;;;;;;15.6;10.9;;;;;;;;;;;;;
2022/02/03 23:08:56;;;;;;;24.5;20.4;;;;;;;;;;;;;
2022/02/03 23:11:17;;;;;;;15.4;11.8;;;;;;;;;;;;;
2022/02/03 23:14:00;;;;;;;10.9;7.4;;;;;;;;;;;;;
2022/02/03 23:16:05;;;;;;;10.5;7;;;;;;;;;;;;;
2022/02/03 23:18:29;;;;;;;14;8.8;;;;;;;;;;;;;
2022/02/03 23:21:12;;;;;;;13.5;9.3;;;;;;;;;;;;;
2022/02/03 23:23:13;;;;;;;14.4;9.4;;;;;;;;;;;;;
2022/02/03 23:25:43;;;;;;;11.8;8.5;;;;;;;;;;;;;
2022/02/03 23:28:18;;;;;;;11.3;9.1;;;;;;;;;;;;;
2022/02/03 23:30:29;;;;;;;10.9;7.7;;;;;;;;;;;;;
2022/02/03 23:32:55;;;;;;;13;8.8;;;;;;;;;;;;;
2022/02/03 23:35:23;;;;;;;11.7;8.7;;;;;;;;;;;;;
2022/02/03 23:37:50;;;;;;;10.4;8;;;;;;;;;;;;;
2022/02/03 23:40:15;;;;;;;9.9;7.5;;;;;;;;;;;;;
2022/02/03 23:43:21;;;;;;;7.5;5.9;;;;;;;;;;;;;
2022/02/03 23:45:14;;;;;;;6.6;4.8;;;;;;;;;;;;;
2022/02/03 23:49:11;;;;;;;5.7;4.3;;;;;;;;;;;;;
